Saffet Bey — TCUZ — position and weather

sailwx.info

Track history (hours):
 
Tides and Currents Weather Stations Pressure Air Temp Water Temp Dewpoint Dewpoint Depression Visibility Wind Speed Wind Dir Waves Ship Positions

Saffet Bey

Last reported at 2014-Jul-28 10:14 UTC. Time now 2014-Jul-29 18:58 UTC.
Position N 36°46' E 023°54'.

Length 164 m; draft 6.7 m.

Type: Cargo ship. MMSI: 271000419.

Date/timePositionNaut miles runAvg speedWind from/ knotsBaromVisibWave heightAir tempDewpointWater temp
2014-Jul-28 10:14N 36°46' E 023°54'2614.3
2014-Jul-28 08:27N 36°60' E 024°21'1813.9
2014-Jul-28 07:09N 37°10' E 024°40'2314.3
2014-Jul-28 05:33N 37°24' E 025°02'40 1.7
2014-Jul-27 06:15N 37°50' E 025°40'2514.2
2014-Jul-27 04:28N 37°32' E 025°17'1313.9
2014-Jul-27 03:33N 37°24' E 025°05'1914.5
2014-Jul-27 02:15N 37°13' E 024°45'3214.8
2014-Jul-27 00:04N 36°54' E 024°13'  
2014-Jul-21 09:29N 36°45' E 023°53'1516.2
2014-Jul-21 08:33N 36°53' E 024°09'3316.1
2014-Jul-21 06:32N 37°11' E 024°43'1615.9
2014-Jul-21 05:33N 37°21' E 024°58'1616.5
2014-Jul-21 04:33N 37°31' E 025°15'1616.1
2014-Jul-21 03:32N 37°42' E 025°29'1615.1
2014-Jul-21 02:31N 37°53' E 025°43'32 1.6
2014-Jul-20 06:33N 37°31' E 025°15'1211.9
2014-Jul-20 05:33N 37°24' E 025°03'8113.4
2014-Jul-19 23:31N 36°37' E 023°40'1814.1
2014-Jul-19 22:15N 36°28' E 023°21'  
Track history (hours):
 
Tides and Currents Weather Stations Pressure Air Temp Water Temp Dewpoint Dewpoint Depression Visibility Wind Speed Wind Dir Waves Ship Positions

Saffet Bey

Last reported at 2014-Jul-28 10:14 UTC. Time now 2014-Jul-29 18:58 UTC.
Position N 36°46' E 023°54'.

Length 164 m; draft 6.7 m.

Type: Cargo ship. MMSI: 271000419.

Date/timePositionNaut miles runAvg speedWind from/ knotsBaromVisibWave heightAir tempDewpointWater temp
2014-Jul-28 10:14N 36°46' E 023°54'2614.3
2014-Jul-28 08:27N 36°60' E 024°21'1813.9
2014-Jul-28 07:09N 37°10' E 024°40'2314.3
2014-Jul-28 05:33N 37°24' E 025°02'40 1.7
2014-Jul-27 06:15N 37°50' E 025°40'2514.2
2014-Jul-27 04:28N 37°32' E 025°17'1313.9
2014-Jul-27 03:33N 37°24' E 025°05'1914.5
2014-Jul-27 02:15N 37°13' E 024°45'3214.8
2014-Jul-27 00:04N 36°54' E 024°13'  
2014-Jul-21 09:29N 36°45' E 023°53'1516.2
2014-Jul-21 08:33N 36°53' E 024°09'3316.1
2014-Jul-21 06:32N 37°11' E 024°43'1615.9
2014-Jul-21 05:33N 37°21' E 024°58'1616.5
2014-Jul-21 04:33N 37°31' E 025°15'1616.1
2014-Jul-21 03:32N 37°42' E 025°29'1615.1
2014-Jul-21 02:31N 37°53' E 025°43'32 1.6
2014-Jul-20 06:33N 37°31' E 025°15'1211.9
2014-Jul-20 05:33N 37°24' E 025°03'8113.4
2014-Jul-19 23:31N 36°37' E 023°40'1814.1
2014-Jul-19 22:15N 36°28' E 023°21'  

Dump ship's entire track history